Time;durP1;ratioP1;P1;durP2;ratioP2;P2;SDS_P1;SDS_P2;PMS_P1;PMS_P2;Temp;Humidity;BMP_temperature;BMP_pressure;BME280_temperature;BME280_humidity;BME280_pressure;Samples;Min_cycle;Max_cycle;Signal;HPM_P1;HPM_P2
2024/01/22 00:01:56;;;;;;;10.18;3.80;;;;;;;9.75;100.00;101025.06;5269494;28;20024;-71
2024/01/22 00:04:27;;;;;;;9.90;4.20;;;;;;;9.79;100.00;101024.59;5269345;28;20023;-71
2024/01/22 00:06:57;;;;;;;9.93;3.45;;;;;;;9.78;100.00;101016.69;5269750;28;20481;-71
2024/01/22 00:09:28;;;;;;;11.82;3.75;;;;;;;9.83;100.00;100995.63;5268106;28;20107;-71
2024/01/22 00:11:58;;;;;;;10.82;3.47;;;;;;;9.88;100.00;101008.53;5268458;28;20036;-71
2024/01/22 00:14:29;;;;;;;12.23;3.60;;;;;;;9.88;100.00;101000.50;5267471;28;20126;-71
2024/01/22 00:16:59;;;;;;;7.47;3.47;;;;;;;9.85;100.00;100989.13;5267880;28;21209;-71
2024/01/22 00:19:30;;;;;;;6.10;3.30;;;;;;;9.88;100.00;100997.81;5270444;28;20035;-71
2024/01/22 00:22:00;;;;;;;7.00;3.22;;;;;;;9.98;100.00;100977.09;5271538;28;20398;-71
2024/01/22 00:24:30;;;;;;;8.60;4.30;;;;;;;10.01;100.00;100974.97;5268359;28;20134;-72
2024/01/22 00:27:01;;;;;;;15.45;3.83;;;;;;;9.93;100.00;100961.50;5270119;28;20016;-72
2024/01/22 00:29:31;;;;;;;5.00;3.17;;;;;;;9.98;100.00;100967.22;5270026;28;20028;-72
2024/01/22 00:32:03;;;;;;;9.60;3.40;;;;;;;9.94;100.00;100946.25;5270422;28;20024;-71
2024/01/22 00:34:33;;;;;;;10.43;4.40;;;;;;;10.07;100.00;100960.91;5269170;28;20028;-71
2024/01/22 00:37:04;;;;;;;8.40;3.30;;;;;;;10.04;100.00;100926.41;5269972;28;20492;-71
2024/01/22 00:39:35;;;;;;;9.85;3.05;;;;;;;10.08;100.00;100940.31;5268828;28;20031;-71
2024/01/22 00:42:05;;;;;;;6.68;2.65;;;;;;;10.18;100.00;100918.72;5270394;28;20020;-71
2024/01/22 00:44:36;;;;;;;13.52;3.33;;;;;;;10.15;100.00;100911.88;5267714;28;20054;-71
2024/01/22 00:47:06;;;;;;;4.22;2.70;;;;;;;10.16;100.00;100910.88;5269442;28;20028;-71
2024/01/22 00:49:37;;;;;;;10.85;4.75;;;;;;;10.13;100.00;100877.16;5268628;28;20453;-71
2024/01/22 00:52:07;;;;;;;8.35;2.83;;;;;;;10.20;100.00;100912.22;5269120;28;20028;-71
2024/01/22 00:54:38;;;;;;;4.97;2.20;;;;;;;10.15;100.00;100913.72;5267515;28;20107;-71
2024/01/22 00:57:08;;;;;;;8.07;2.80;;;;;;;10.27;100.00;100907.06;5270863;28;20693;-72
2024/01/22 00:59:39;;;;;;;7.32;2.90;;;;;;;10.33;100.00;100896.53;5268256;28;20510;-72
2024/01/22 01:02:09;;;;;;;5.03;2.70;;;;;;;10.28;100.00;100898.84;5270056;28;20429;-72
2024/01/22 01:04:40;;;;;;;5.28;2.70;;;;;;;10.29;100.00;100916.66;5268262;28;20035;-72
2024/01/22 01:07:12;;;;;;;9.07;3.13;;;;;;;10.38;100.00;100912.97;5269178;28;20077;-72
2024/01/22 01:09:43;;;;;;;7.20;2.60;;;;;;;10.39;100.00;100884.31;5266523;28;20039;-72
2024/01/22 01:12:13;;;;;;;9.05;3.40;;;;;;;10.41;100.00;100890.34;5267687;28;20481;-72
2024/01/22 01:14:44;;;;;;;7.32;2.65;;;;;;;10.49;100.00;100882.34;5268150;28;20448;-72
2024/01/22 01:17:14;;;;;;;5.72;2.30;;;;;;;10.45;100.00;100862.22;5269795;28;20135;-72
2024/01/22 01:19:44;;;;;;;10.27;2.60;;;;;;;10.47;100.00;100854.00;5267670;28;20024;-72
2024/01/22 01:22:15;;;;;;;4.95;2.50;;;;;;;10.48;100.00;100844.94;5269187;28;20032;-72
2024/01/22 01:24:45;;;;;;;8.38;2.20;;;;;;;10.53;100.00;100842.59;5266594;28;20020;-72
2024/01/22 01:27:17;;;;;;;7.82;2.53;;;;;;;10.68;100.00;100835.56;5268897;28;20020;-72
2024/01/22 01:29:48;;;;;;;5.43;2.13;;;;;;;10.60;100.00;100832.91;5268933;28;20036;-71
2024/01/22 01:32:18;;;;;;;5.72;2.03;;;;;;;10.71;100.00;100821.81;5270989;28;20208;-71
2024/01/22 01:34:49;;;;;;;7.32;2.20;;;;;;;10.74;100.00;100807.22;5272650;28;20032;-71
2024/01/22 01:37:19;;;;;;;3.97;2.25;;;;;;;10.81;100.00;100808.25;5269039;28;20111;-72
2024/01/22 01:39:50;;;;;;;5.35;2.05;;;;;;;10.83;100.00;100790.94;5268300;28;20028;-72
2024/01/22 01:42:21;;;;;;;4.55;1.83;;;;;;;10.82;100.00;100801.84;5268469;28;20614;-72
2024/01/22 01:44:52;;;;;;;5.32;2.15;;;;;;;10.90;100.00;100801.88;5266793;28;20024;-71
2024/01/22 01:47:23;;;;;;;3.67;1.60;;;;;;;10.80;100.00;100807.41;5267777;28;20026;-72
2024/01/22 01:49:54;;;;;;;8.07;2.00;;;;;;;10.96;100.00;100798.50;5268231;28;20127;-72
2024/01/22 01:52:25;;;;;;;8.15;2.10;;;;;;;10.93;100.00;100792.63;5269018;28;20426;-72
2024/01/22 01:54:56;;;;;;;3.55;1.70;;;;;;;10.99;100.00;100790.09;5269342;28;20107;-72
2024/01/22 01:57:26;;;;;;;4.65;1.70;;;;;;;11.02;100.00;100788.91;5268440;28;20031;-72
2024/01/22 01:59:57;;;;;;;6.70;1.98;;;;;;;11.08;100.00;100786.38;5268616;28;20023;-72
2024/01/22 02:02:28;;;;;;;5.28;2.42;;;;;;;11.15;100.00;100808.88;5264951;28;20024;-71
2024/01/22 02:05:01;;;;;;;7.32;1.85;;;;;;;11.21;100.00;100809.19;5269232;28;20440;-72
2024/01/22 02:07:32;;;;;;;2.90;1.48;;;;;;;11.29;100.00;100779.63;5262169;28;20077;-72
2024/01/22 02:10:03;;;;;;;4.25;1.35;;;;;;;11.23;100.00;100816.06;5269024;28;20482;-72
2024/01/22 02:12:34;;;;;;;3.60;1.67;;;;;;;11.32;100.00;100785.50;5267550;28;20050;-72
2024/01/22 02:15:05;;;;;;;4.57;1.35;;;;;;;11.40;100.00;100784.63;5269471;28;20031;-72
2024/01/22 02:17:36;;;;;;;1.85;1.27;;;;;;;11.48;100.00;100762.25;5268079;28;20027;-72
2024/01/22 02:20:07;;;;;;;2.55;1.52;;;;;;;11.64;100.00;100776.44;5268224;28;20397;-72
2024/01/22 02:22:38;;;;;;;2.13;1.38;;;;;;;11.68;100.00;100739.34;5268305;28;20031;-72
2024/01/22 02:25:09;;;;;;;3.80;1.45;;;;;;;11.80;100.00;100772.88;5269050;28;20019;-72
2024/01/22 02:27:39;;;;;;;2.80;1.45;;;;;;;11.78;100.00;100736.44;5267253;28;20035;-72
2024/01/22 02:30:11;;;;;;;4.05;1.35;;;;;;;11.80;100.00;100745.16;5269017;28;20023;-72
2024/01/22 02:32:41;;;;;;;6.57;1.50;;;;;;;11.80;100.00;100739.78;5268339;28;20508;-72
2024/01/22 02:35:11;;;;;;;4.50;1.52;;;;;;;11.75;100.00;100739.47;5267574;28;20032;-72
2024/01/22 02:37:42;;;;;;;4.68;1.33;;;;;;;11.76;100.00;100723.16;5266390;28;20049;-72
2024/01/22 02:40:12;;;;;;;3.20;1.30;;;;;;;11.75;100.00;100737.63;5269696;28;20027;-72
2024/01/22 02:42:43;;;;;;;5.43;1.60;;;;;;;11.74;100.00;100730.56;5268224;28;20056;-72
2024/01/22 02:45:13;;;;;;;5.18;1.45;;;;;;;11.74;100.00;100717.13;5267100;28;20024;-72
2024/01/22 02:47:44;;;;;;;3.55;1.58;;;;;;;11.71;100.00;100725.56;5268289;28;20024;-72
2024/01/22 02:50:15;;;;;;;3.03;1.30;;;;;;;11.64;100.00;100703.91;5268943;28;20754;-72
2024/01/22 02:52:46;;;;;;;2.47;1.33;;;;;;;11.71;100.00;100709.44;5268176;28;20077;-72
2024/01/22 02:55:16;;;;;;;3.05;1.50;;;;;;;11.67;100.00;100697.34;5268499;28;20054;-72
2024/01/22 02:57:47;;;;;;;5.57;1.42;;;;;;;11.49;100.00;100715.56;5268076;28;20099;-72
2024/01/22 03:00:17;;;;;;;1.48;1.20;;;;;;;11.46;100.00;100672.97;5269177;28;20039;-72
2024/01/22 03:03:07;;;;;;;5.22;1.48;;;;;;;11.43;100.00;100666.09;5268424;28;20102;-72
2024/01/22 03:05:42;;;;;;;3.00;1.65;;;;;;;11.32;100.00;100704.09;5267450;28;20557;-73
2024/01/22 03:08:13;;;;;;;1.85;1.25;;;;;;;11.23;100.00;100673.72;5269276;28;20032;-73
2024/01/22 03:10:44;;;;;;;3.25;1.88;;;;;;;11.19;100.00;100658.13;5267580;28;20105;-73
2024/01/22 03:13:14;;;;;;;3.50;1.70;;;;;;;11.18;100.00;100686.84;5271055;28;20207;-73
2024/01/22 03:15:50;;;;;;;4.35;1.80;;;;;;;11.15;100.00;100657.69;5271268;28;20085;-73
2024/01/22 03:18:21;;;;;;;4.40;1.52;;;;;;;11.12;100.00;100666.06;5268950;28;20434;-73
2024/01/22 03:20:51;;;;;;;2.72;1.40;;;;;;;11.09;100.00;100640.41;5274598;28;20028;-73
2024/01/22 03:23:22;;;;;;;5.03;1.33;;;;;;;11.16;100.00;100651.28;5274817;28;20032;-73
2024/01/22 03:25:54;;;;;;;3.08;1.50;;;;;;;11.20;100.00;100623.09;5266765;28;20538;-73
2024/01/22 03:28:24;;;;;;;2.40;1.45;;;;;;;11.33;100.00;100615.28;5268399;28;20028;-73
2024/01/22 03:30:55;;;;;;;2.15;1.20;;;;;;;11.28;100.00;100633.75;5268533;28;20552;-73
2024/01/22 03:33:25;;;;;;;5.32;1.25;;;;;;;11.35;100.00;100623.16;5275634;28;20035;-73
2024/01/22 03:35:56;;;;;;;2.83;1.60;;;;;;;11.40;100.00;100608.19;5268955;28;20197;-73
2024/01/22 03:38:26;;;;;;;4.88;1.42;;;;;;;11.68;100.00;100616.56;5274127;28;20016;-73
2024/01/22 03:40:57;;;;;;;4.65;1.23;;;;;;;11.65;100.00;100619.63;5281078;28;20046;-73
2024/01/22 03:43:27;;;;;;;5.25;1.60;;;;;;;11.72;100.00;100616.22;5271181;28;20104;-73
2024/01/22 03:45:58;;;;;;;1.48;1.08;;;;;;;11.71;100.00;100590.34;5283647;28;20023;-73
2024/01/22 03:48:29;;;;;;;3.20;1.02;;;;;;;11.76;100.00;100621.03;5272593;28;20116;-73
2024/01/22 03:50:59;;;;;;;2.72;1.05;;;;;;;11.86;100.00;100593.97;5277648;28;20031;-73
2024/01/22 03:53:30;;;;;;;2.28;1.00;;;;;;;11.82;100.00;100614.97;5283460;28;20020;-73
2024/01/22 03:56:04;;;;;;;2.42;0.82;;;;;;;11.94;100.00;100618.06;5278470;28;20023;-73
2024/01/22 03:58:34;;;;;;;1.73;0.85;;;;;;;12.04;100.00;100582.88;5275645;28;20047;-73
2024/01/22 04:01:05;;;;;;;4.32;1.00;;;;;;;12.07;100.00;100609.41;5273979;28;20827;-73
2024/01/22 04:03:35;;;;;;;3.13;1.05;;;;;;;12.04;100.00;100607.06;5287454;28;20026;-73
2024/01/22 04:06:06;;;;;;;2.05;0.85;;;;;;;12.13;100.00;100574.53;5285952;28;20385;-73
2024/01/22 04:08:36;;;;;;;7.30;0.80;;;;;;;12.04;100.00;100596.31;5282601;28;20031;-73
2024/01/22 04:11:07;;;;;;;1.73;0.93;;;;;;;12.16;100.00;100593.00;5284012;28;20028;-73
2024/01/22 04:13:40;;;;;;;3.15;0.77;;;;;;;12.32;100.00;100581.25;5276596;28;20034;-73
2024/01/22 04:16:13;;;;;;;2.10;0.77;;;;;;;12.36;100.00;100576.34;5277990;28;20019;-73
2024/01/22 04:18:43;;;;;;;1.83;0.90;;;;;;;12.46;100.00;100584.97;5281448;27;20123;-73
2024/01/22 04:21:14;;;;;;;2.55;1.08;;;;;;;12.52;100.00;100568.09;5278885;28;20027;-73
2024/01/22 04:23:44;;;;;;;2.90;1.23;;;;;;;12.43;100.00;100561.13;5286373;28;20027;-73
2024/01/22 04:26:15;;;;;;;1.98;0.68;;;;;;;12.54;100.00;100587.56;5272864;28;20043;-73
2024/01/22 04:28:45;;;;;;;2.97;0.80;;;;;;;12.55;100.00;100581.19;5284507;28;20031;-73
2024/01/22 04:31:16;;;;;;;2.15;0.93;;;;;;;12.56;100.00;100582.00;5284627;28;20015;-73
2024/01/22 04:33:46;;;;;;;2.67;1.17;;;;;;;12.71;100.00;100585.53;5280893;28;20114;-73
2024/01/22 04:36:16;;;;;;;2.17;0.75;;;;;;;12.80;100.00;100565.59;5272315;28;20111;-73
2024/01/22 04:38:47;;;;;;;5.93;0.98;;;;;;;12.85;100.00;100559.59;5285704;27;20141;-73
2024/01/22 04:41:17;;;;;;;6.30;1.20;;;;;;;12.96;100.00;100575.31;5278527;28;20043;-73
2024/01/22 04:43:48;;;;;;;2.60;1.00;;;;;;;12.92;100.00;100579.38;5280066;28;20036;-73
2024/01/22 04:46:18;;;;;;;1.98;0.90;;;;;;;12.90;100.00;100565.25;5277231;28;20023;-74
2024/01/22 04:48:49;;;;;;;3.10;0.82;;;;;;;12.92;100.00;100584.78;5285230;28;20031;-75
2024/01/22 04:51:19;;;;;;;2.33;0.80;;;;;;;12.93;100.00;100564.91;5284062;28;20050;-74
2024/01/22 04:53:50;;;;;;;1.23;0.63;;;;;;;12.94;100.00;100567.38;5279587;28;20085;-74
2024/01/22 04:56:20;;;;;;;3.13;1.15;;;;;;;12.88;100.00;100553.84;5277892;28;20031;-74
2024/01/22 04:58:50;;;;;;;2.13;0.80;;;;;;;12.81;100.00;100556.47;5275651;28;20058;-74
2024/01/22 05:01:21;;;;;;;2.83;0.95;;;;;;;12.79;100.00;100560.34;5271768;28;20081;-74
2024/01/22 05:03:51;;;;;;;1.73;0.80;;;;;;;12.68;100.00;100556.28;5285044;28;20020;-75
2024/01/22 05:06:22;;;;;;;4.40;1.20;;;;;;;12.58;100.00;100570.03;5277889;28;20063;-75
2024/01/22 05:08:52;;;;;;;4.05;0.80;;;;;;;12.50;100.00;100567.44;5281692;27;20020;-74
2024/01/22 05:11:23;;;;;;;1.33;0.80;;;;;;;12.48;100.00;100549.81;5277814;28;20031;-74
2024/01/22 05:13:54;;;;;;;4.35;1.27;;;;;;;12.57;100.00;100557.59;5273484;28;20493;-74
2024/01/22 05:16:24;;;;;;;2.22;0.82;;;;;;;12.54;100.00;100555.28;5274956;28;20031;-74
2024/01/22 05:18:55;;;;;;;3.80;1.48;;;;;;;12.55;100.00;100550.72;5281344;28;20642;-75
2024/01/22 05:21:25;;;;;;;1.95;0.68;;;;;;;12.50;100.00;100545.06;5280528;28;20031;-75
2024/01/22 05:23:57;;;;;;;3.13;1.10;;;;;;;12.55;100.00;100569.56;5275936;28;20020;-75
2024/01/22 05:26:27;;;;;;;4.00;1.20;;;;;;;12.57;100.00;100554.06;5276619;28;20118;-74
2024/01/22 05:28:58;;;;;;;4.22;1.23;;;;;;;12.62;100.00;100563.25;5273131;28;20103;-75
2024/01/22 05:31:28;;;;;;;3.22;0.88;;;;;;;12.40;100.00;100531.91;5274597;27;21070;-75
2024/01/22 05:33:59;;;;;;;4.82;1.00;;;;;;;12.37;100.00;100543.88;5272365;28;20115;-75
2024/01/22 05:36:29;;;;;;;3.30;1.13;;;;;;;12.21;100.00;100551.28;5274063;28;20051;-74
2024/01/22 05:38:59;;;;;;;2.58;1.02;;;;;;;12.01;100.00;100541.06;5272526;28;20020;-75
2024/01/22 05:41:30;;;;;;;2.80;1.08;;;;;;;11.97;100.00;100555.88;5276351;28;20027;-75
2024/01/22 05:44:01;;;;;;;6.35;2.10;;;;;;;11.93;100.00;100547.34;5278510;28;20111;-75
2024/01/22 05:46:31;;;;;;;1.98;1.58;;;;;;;11.93;100.00;100565.31;5270845;28;20544;-74
2024/01/22 05:49:02;;;;;;;3.58;1.90;;;;;;;12.00;100.00;100576.19;5277952;28;20085;-75
2024/01/22 05:51:33;;;;;;;4.13;1.38;;;;;;;11.93;100.00;100574.22;5276656;28;20080;-75
2024/01/22 05:54:04;;;;;;;4.05;1.67;;;;;;;11.96;100.00;100591.84;5277864;28;20098;-75
2024/01/22 05:56:34;;;;;;;6.63;1.30;;;;;;;11.93;100.00;100594.91;5276252;28;20023;-75
2024/01/22 05:59:05;;;;;;;3.95;1.02;;;;;;;11.97;100.00;100581.94;5277321;28;20504;-74
2024/01/22 06:01:36;;;;;;;5.72;1.35;;;;;;;11.92;100.00;100569.88;5276845;28;20397;-75
2024/01/22 06:04:06;;;;;;;3.67;1.33;;;;;;;11.92;100.00;100577.94;5272265;27;20035;-75
2024/01/22 06:06:37;;;;;;;2.38;1.50;;;;;;;11.89;100.00;100585.50;5272761;28;20027;-75
2024/01/22 06:09:08;;;;;;;4.00;1.63;;;;;;;11.82;100.00;100584.59;5277633;28;20042;-74
2024/01/22 06:11:38;;;;;;;4.50;1.27;;;;;;;11.87;100.00;100590.25;5272062;28;20362;-75
2024/01/22 06:14:09;;;;;;;3.15;1.20;;;;;;;11.96;100.00;100594.53;5273818;28;20051;-75
2024/01/22 06:16:39;;;;;;;3.78;0.95;;;;;;;11.98;100.00;100618.53;5272096;28;20020;-75
2024/01/22 06:19:10;;;;;;;5.65;2.03;;;;;;;12.11;100.00;100608.84;5270041;28;20054;-75
2024/01/22 06:21:40;;;;;;;4.55;1.80;;;;;;;12.15;100.00;100630.84;5270878;28;20023;-75
2024/01/22 06:24:11;;;;;;;3.97;1.52;;;;;;;12.23;100.00;100629.94;5280185;28;20031;-75
2024/01/22 06:26:41;;;;;;;2.47;0.90;;;;;;;12.21;100.00;100616.66;5277133;28;20020;-75
2024/01/22 06:29:13;;;;;;;6.60;1.45;;;;;;;12.25;100.00;100615.28;5274505;28;20035;-75
2024/01/22 06:31:43;;;;;;;6.30;2.35;;;;;;;12.29;100.00;100630.03;5272785;28;20032;-75
2024/01/22 06:34:14;;;;;;;4.75;1.30;;;;;;;12.30;100.00;100617.41;5270414;28;20076;-75
2024/01/22 06:36:44;;;;;;;4.95;2.40;;;;;;;12.27;100.00;100626.69;5281643;28;20093;-75
2024/01/22 06:39:15;;;;;;;3.13;1.00;;;;;;;12.25;100.00;100636.81;5279250;28;20438;-75
2024/01/22 06:41:45;;;;;;;4.95;1.45;;;;;;;12.30;100.00;100634.41;5267741;28;20039;-75
2024/01/22 06:44:16;;;;;;;2.05;0.80;;;;;;;12.34;100.00;100632.16;5274428;28;20019;-75
2024/01/22 06:46:47;;;;;;;7.57;2.67;;;;;;;12.33;100.00;100639.41;5266279;28;20040;-74
2024/01/22 06:49:17;;;;;;;6.70;1.13;;;;;;;12.47;100.00;100645.84;5274703;28;20431;-74
2024/01/22 06:51:48;;;;;;;7.43;3.58;;;;;;;12.42;100.00;100637.47;5275716;28;20087;-74
2024/01/22 06:54:19;;;;;;;3.88;1.00;;;;;;;12.43;100.00;100639.16;5269260;28;20023;-74
2024/01/22 06:56:49;;;;;;;6.22;1.23;;;;;;;12.33;100.00;100630.50;5267621;28;20071;-74
2024/01/22 06:59:20;;;;;;;10.90;1.70;;;;;;;12.36;100.00;100636.38;5279033;28;20082;-74
2024/01/22 07:01:52;;;;;;;9.18;2.00;;;;;;;12.33;100.00;100623.25;5268197;28;20121;-74
2024/01/22 07:04:23;;;;;;;6.28;1.75;;;;;;;12.30;100.00;100636.22;5268740;28;20492;-74
2024/01/22 07:06:53;;;;;;;14.00;2.00;;;;;;;12.28;100.00;100638.28;5255882;28;20032;-73
2024/01/22 07:09:24;;;;;;;16.25;2.40;;;;;;;12.27;100.00;100634.75;5269775;28;20108;-74
2024/01/22 07:11:54;;;;;;;14.65;2.85;;;;;;;12.28;100.00;100622.16;5266523;28;20028;-74
2024/01/22 07:14:26;;;;;;;19.77;3.35;;;;;;;12.35;100.00;100634.69;5270735;28;20112;-74
2024/01/22 07:16:57;;;;;;;18.73;3.60;;;;;;;12.34;100.00;100616.03;5250994;28;20036;-74
2024/01/22 07:19:27;;;;;;;24.58;3.10;;;;;;;12.30;100.00;100638.94;5274845;28;20028;-74
2024/01/22 07:21:58;;;;;;;20.05;3.15;;;;;;;12.29;100.00;100654.22;5271246;28;20027;-73
2024/01/22 07:24:28;;;;;;;12.80;2.53;;;;;;;12.31;100.00;100643.31;5272471;27;20028;-74
2024/01/22 07:26:59;;;;;;;10.43;2.25;;;;;;;12.29;100.00;100648.03;5270706;28;20103;-74
2024/01/22 07:29:30;;;;;;;13.00;2.17;;;;;;;12.40;100.00;100643.06;5268928;28;20028;-74
2024/01/22 07:32:01;;;;;;;16.90;2.10;;;;;;;12.40;100.00;100645.75;5274493;28;20035;-74
2024/01/22 07:34:32;;;;;;;12.45;2.10;;;;;;;12.42;100.00;100645.56;5279777;28;20035;-74
2024/01/22 07:37:03;;;;;;;9.13;1.35;;;;;;;12.29;100.00;100656.91;5276147;28;20035;-74
2024/01/22 07:39:33;;;;;;;10.50;2.17;;;;;;;12.16;100.00;100660.25;5278979;28;20024;-74
2024/01/22 07:42:04;;;;;;;4.72;1.60;;;;;;;12.26;100.00;100653.78;5277265;28;20032;-74
2024/01/22 07:44:34;;;;;;;10.57;1.63;;;;;;;12.18;100.00;100644.75;5276260;28;20027;-74
2024/01/22 07:47:05;;;;;;;4.85;1.60;;;;;;;12.14;100.00;100651.50;5276838;27;20533;-74
2024/01/22 07:49:35;;;;;;;4.18;1.10;;;;;;;12.08;100.00;100681.81;5275305;28;20051;-74
2024/01/22 07:52:06;;;;;;;9.60;1.27;;;;;;;12.19;100.00;100672.47;5276793;28;20024;-74
2024/01/22 07:54:36;;;;;;;8.57;1.80;;;;;;;12.24;100.00;100672.75;5272584;28;20122;-74
2024/01/22 07:57:10;;;;;;;3.78;1.05;;;;;;;12.25;100.00;100671.78;5274771;28;20031;-74
2024/01/22 07:59:40;;;;;;;7.63;1.50;;;;;;;12.29;100.00;100677.59;5268686;28;20034;-74
2024/01/22 08:02:11;;;;;;;4.53;1.25;;;;;;;12.30;100.00;100681.97;5279149;28;20460;-74
2024/01/22 08:04:41;;;;;;;4.97;1.38;;;;;;;12.31;100.00;100671.03;5275872;28;20035;-74
2024/01/22 08:07:12;;;;;;;9.82;1.60;;;;;;;12.35;100.00;100668.81;5270988;28;20023;-74
2024/01/22 08:09:42;;;;;;;8.27;1.67;;;;;;;12.30;100.00;100692.72;5271725;28;20024;-73
2024/01/22 08:12:13;;;;;;;9.05;1.63;;;;;;;12.30;100.00;100692.72;5269568;28;20027;-74
2024/01/22 08:14:43;;;;;;;8.02;1.80;;;;;;;12.30;100.00;100684.66;5275946;28;20064;-74
2024/01/22 08:17:14;;;;;;;10.77;1.30;;;;;;;12.32;100.00;100680.78;5273366;28;20027;-74
2024/01/22 08:19:44;;;;;;;7.45;1.60;;;;;;;12.36;100.00;100692.03;5253754;28;20178;-74
2024/01/22 08:22:15;;;;;;;5.00;1.52;;;;;;;12.39;100.00;100697.84;5269145;28;20080;-73
2024/01/22 08:24:45;;;;;;;7.03;1.35;;;;;;;12.37;100.00;100694.53;5271362;28;20520;-74
2024/01/22 08:27:16;;;;;;;8.63;1.55;;;;;;;12.34;100.00;100705.63;5274636;28;20031;-74
2024/01/22 08:29:47;;;;;;;10.15;1.90;;;;;;;12.38;100.00;100700.72;5275610;28;20019;-74
2024/01/22 08:32:17;;;;;;;13.57;1.92;;;;;;;12.41;100.00;100705.75;5276202;28;20035;-74
2024/01/22 08:34:48;;;;;;;13.13;1.70;;;;;;;12.39;100.00;100697.00;5271249;28;20023;-74
2024/01/22 08:37:19;;;;;;;6.97;2.25;;;;;;;12.34;100.00;100699.41;5269855;28;20023;-73
2024/01/22 08:39:49;;;;;;;11.18;1.73;;;;;;;12.32;100.00;100717.59;5276570;28;20050;-73
2024/01/22 08:42:20;;;;;;;11.07;1.83;;;;;;;12.36;100.00;100697.41;5271351;28;20528;-74
2024/01/22 08:44:50;;;;;;;5.78;1.70;;;;;;;12.33;100.00;100714.72;5275719;28;20504;-74
2024/01/22 08:47:20;;;;;;;8.13;2.08;;;;;;;12.34;100.00;100724.47;5277212;28;20040;-74
2024/01/22 08:49:51;;;;;;;19.00;1.98;;;;;;;12.41;100.00;100703.06;5270732;28;20114;-74
2024/01/22 08:52:21;;;;;;;6.60;1.58;;;;;;;12.39;100.00;100700.53;5267983;28;20133;-73
2024/01/22 08:54:52;;;;;;;11.18;1.80;;;;;;;12.34;100.00;100700.25;5271476;28;20081;-74
2024/01/22 08:57:22;;;;;;;8.70;2.10;;;;;;;12.28;100.00;100694.75;5273041;28;20115;-74
2024/01/22 08:59:53;;;;;;;6.80;1.80;;;;;;;12.24;100.00;100712.28;5272909;28;20019;-74
2024/01/22 09:02:23;;;;;;;9.38;1.75;;;;;;;12.10;100.00;100719.31;5268538;28;20027;-74
2024/01/22 09:04:53;;;;;;;10.93;1.90;;;;;;;12.10;100.00;100704.00;5275347;28;20032;-74
2024/01/22 09:07:24;;;;;;;15.15;2.10;;;;;;;12.22;100.00;100717.00;5275963;28;20139;-74
2024/01/22 09:09:55;;;;;;;11.93;2.00;;;;;;;12.26;100.00;100712.94;5268211;28;20027;-74
2024/01/22 09:12:26;;;;;;;10.98;1.90;;;;;;;12.31;100.00;100702.50;5266239;28;20130;-74
2024/01/22 09:14:56;;;;;;;16.92;2.42;;;;;;;12.39;100.00;100716.69;5267968;28;20016;-74
2024/01/22 09:17:27;;;;;;;16.42;2.28;;;;;;;12.40;100.00;100693.34;5268787;28;20028;-74
2024/01/22 09:19:58;;;;;;;14.20;2.33;;;;;;;12.54;100.00;100705.13;5278757;28;20027;-74
2024/01/22 09:22:29;;;;;;;15.88;3.60;;;;;;;12.60;100.00;100683.72;5265680;28;20031;-74
2024/01/22 09:24:59;;;;;;;13.05;2.50;;;;;;;12.49;100.00;100686.00;5266884;28;20036;-74
2024/01/22 09:27:30;;;;;;;11.05;2.60;;;;;;;12.56;100.00;100727.31;5272144;28;20050;-74
2024/01/22 09:30:00;;;;;;;14.05;2.20;;;;;;;12.59;100.00;100708.09;5269083;28;20073;-74
2024/01/22 09:32:31;;;;;;;15.35;2.47;;;;;;;12.59;100.00;100713.50;5270076;28;20675;-74
2024/01/22 09:35:01;;;;;;;13.68;4.90;;;;;;;12.61;100.00;100717.69;5275664;28;20035;-74
2024/01/22 09:37:33;;;;;;;13.25;2.78;;;;;;;12.59;100.00;100717.00;5264384;28;20031;-73
2024/01/22 09:40:06;;;;;;;14.98;2.88;;;;;;;12.61;100.00;100690.78;5271055;28;20049;-74
2024/01/22 09:42:39;;;;;;;16.48;2.45;;;;;;;12.64;100.00;100728.06;5269043;28;20059;-74
2024/01/22 09:45:09;;;;;;;10.57;2.95;;;;;;;12.71;100.00;100730.88;5271598;28;20419;-74
2024/01/22 09:47:40;;;;;;;19.50;3.08;;;;;;;12.70;100.00;100739.94;5265714;28;20031;-74
2024/01/22 09:50:11;;;;;;;12.55;2.22;;;;;;;12.65;100.00;100755.81;5272205;28;20027;-74
2024/01/22 09:52:45;;;;;;;10.95;2.25;;;;;;;12.55;100.00;100752.53;5271905;28;20024;-74
2024/01/22 09:55:16;;;;;;;18.70;3.75;;;;;;;12.31;100.00;100754.44;5268204;28;20480;-74
2024/01/22 09:57:51;;;;;;;24.70;3.63;;;;;;;12.31;100.00;100767.88;5269079;28;20020;-75
2024/01/22 10:00:26;;;;;;;12.95;3.30;;;;;;;12.13;100.00;100764.63;5268924;28;20115;-75
2024/01/22 10:03:00;;;;;;;23.35;3.25;;;;;;;12.11;100.00;100777.44;5269325;28;20408;-75
2024/01/22 10:05:31;;;;;;;15.57;3.05;;;;;;;12.04;100.00;100790.72;5273321;28;20020;-75
2024/01/22 10:08:01;;;;;;;18.38;2.92;;;;;;;11.91;100.00;100807.44;5272463;28;20038;-74
2024/01/22 10:10:32;;;;;;;24.17;3.45;;;;;;;11.84;100.00;100806.47;5267013;27;20023;-75
2024/01/22 10:13:04;;;;;;;17.98;3.28;;;;;;;11.73;100.00;100819.44;5271928;28;20051;-74
2024/01/22 10:15:36;;;;;;;16.98;3.00;;;;;;;11.83;100.00;100831.69;5272150;28;20077;-75
2024/01/22 10:18:10;;;;;;;19.42;3.67;;;;;;;11.80;100.00;100833.88;5270260;28;20054;-74
2024/01/22 10:20:44;;;;;;;23.40;3.28;;;;;;;11.81;100.00;100833.69;5264934;28;20024;-74
2024/01/22 10:23:16;;;;;;;13.27;3.92;;;;;;;11.87;100.00;100848.31;5270360;28;20019;-75
2024/01/22 10:25:46;;;;;;;16.85;4.53;;;;;;;11.94;100.00;100835.81;5270236;28;20507;-75
2024/01/22 10:28:18;;;;;;;25.33;8.95;;;;;;;12.03;100.00;100836.63;5275264;27;20032;-75
2024/01/22 10:31:04;;;;;;;40.08;13.75;;;;;;;12.05;100.00;100851.59;5274065;28;20088;-74
2024/01/22 10:33:34;;;;;;;116.68;49.67;;;;;;;12.08;100.00;100853.06;5264731;28;20031;-75
2024/01/22 10:36:17;;;;;;;107.25;48.47;;;;;;;12.16;100.00;100848.50;5269493;28;20020;-75
2024/01/22 10:39:00;;;;;;;30.85;11.57;;;;;;;12.13;100.00;100843.47;5267580;28;20533;-73
2024/01/22 10:41:32;;;;;;;31.15;5.57;;;;;;;12.18;100.00;100846.44;5268273;28;20034;-74
2024/01/22 10:44:03;;;;;;;28.23;4.38;;;;;;;12.21;100.00;100858.72;5269251;27;20032;-75
2024/01/22 10:46:35;;;;;;;20.83;4.30;;;;;;;12.23;100.00;100858.53;5265944;28;20150;-74
2024/01/22 10:49:07;;;;;;;24.23;4.32;;;;;;;12.33;100.00;100856.47;5269246;28;20024;-73
2024/01/22 10:51:40;;;;;;;23.00;3.42;;;;;;;12.37;100.00;100855.94;5272980;28;20135;-74
2024/01/22 10:54:11;;;;;;;32.75;4.60;;;;;;;12.23;100.00;100862.06;5267754;28;20028;-74
2024/01/22 10:56:47;;;;;;;32.00;5.13;;;;;;;12.32;100.00;100852.09;5269782;28;20263;-74
2024/01/22 10:59:21;;;;;;;34.65;4.55;;;;;;;12.30;100.00;100851.44;5270025;28;20020;-74
2024/01/22 11:01:54;;;;;;;32.13;5.65;;;;;;;12.38;100.00;100860.28;5272347;28;20096;-73
2024/01/22 11:04:30;;;;;;;30.15;5.28;;;;;;;12.37;100.00;100869.38;5273290;28;20105;-74
2024/01/22 11:07:02;;;;;;;36.03;5.50;;;;;;;12.37;100.00;100857.78;5268889;28;20016;-74
2024/01/22 11:09:33;;;;;;;43.10;6.05;;;;;;;12.31;100.00;100870.09;5251104;28;20436;-74
2024/01/22 11:12:11;;;;;;;43.35;5.82;;;;;;;12.32;100.00;100873.63;5272241;28;20157;-74
2024/01/22 11:14:42;;;;;;;51.35;6.72;;;;;;;12.24;100.00;100877.19;5269007;28;20051;-74
2024/01/22 11:17:14;;;;;;;38.15;10.65;;;;;;;12.26;100.00;100883.25;5271158;28;20023;-74
2024/01/22 11:19:45;;;;;;;39.08;10.00;;;;;;;12.36;100.00;100891.94;5267858;28;20489;-74
2024/01/22 11:22:21;;;;;;;39.40;6.28;;;;;;;12.44;100.00;100889.16;5269925;28;20027;-74
2024/01/22 11:25:01;;;;;;;38.08;8.57;;;;;;;12.59;100.00;100900.00;5273062;28;20027;-74
2024/01/22 11:27:39;;;;;;;43.03;8.95;;;;;;;12.76;100.00;100899.94;5271879;27;20020;-74
2024/01/22 11:30:21;;;;;;;37.15;6.70;;;;;;;12.69;100.00;100907.84;5271328;28;20373;-74
2024/01/22 11:32:51;;;;;;;47.55;7.68;;;;;;;12.88;100.00;100907.38;5273103;28;20020;-73